Time,TemperatureF,DewpointF,PressureIn,WindDirection,WindDirectionDegrees,WindSpeedMPH,WindSpeedGustMPH,Humidity,HourlyPrecipIn,Conditions,Clouds,dailyrainin,SolarRadiationWatts/m^2,SoftwareType,DateUTC
2013-02-25 00:14:00,16.6,14.0,30.11,ESE,111,1.0,2.0,90,0.00,,,0.00,0,weatherlink.com 1.10,2013-02-25 06:14:00,
2013-02-25 00:29:00,16.3,14.0,30.12,ESE,111,0.0,1.0,90,0.00,,,0.00,0,weatherlink.com 1.10,2013-02-25 06:29:00,
2013-02-25 00:44:00,15.7,13.0,30.11,ESE,111,3.0,3.0,89,0.00,,,0.00,0,weatherlink.com 1.10,2013-02-25 06:44:00,
2013-02-25 00:59:00,17.3,15.0,30.11,ESE,111,2.0,2.0,91,0.00,,,0.00,0,weatherlink.com 1.10,2013-02-25 06:59:00,
2013-02-25 01:14:00,18.1,16.0,30.11,ESE,111,0.0,0.0,91,0.00,,,0.00,0,weatherlink.com 1.10,2013-02-25 07:14:00,
2013-02-25 01:29:00,18.6,16.0,30.11,ESE,111,0.0,1.0,91,0.00,,,0.00,0,weatherlink.com 1.10,2013-02-25 07:29:00,
2013-02-25 01:44:00,16.0,13.0,30.12,ESE,111,2.0,3.0,88,0.00,,,0.00,0,weatherlink.com 1.10,2013-02-25 07:44:00,
2013-02-25 01:59:00,16.8,15.0,30.12,ESE,111,0.0,2.0,91,0.00,,,0.00,0,weatherlink.com 1.10,2013-02-25 07:59:00,
2013-02-25 02:14:00,17.6,16.0,30.11,ESE,111,0.0,1.0,92,0.00,,,0.00,0,weatherlink.com 1.10,2013-02-25 08:14:00,
2013-02-25 02:29:00,18.0,16.0,30.11,ESE,111,0.0,3.0,90,0.00,,,0.00,0,weatherlink.com 1.10,2013-02-25 08:29:00,
2013-02-25 02:44:00,15.6,13.0,30.11,ESE,111,0.0,0.0,88,0.00,,,0.00,0,weatherlink.com 1.10,2013-02-25 08:44:00,
2013-02-25 02:59:00,15.6,13.0,30.09,ESE,111,2.0,3.0,90,0.00,,,0.00,0,weatherlink.com 1.10,2013-02-25 08:59:00,
2013-02-25 03:14:00,16.1,14.0,30.09,ESE,111,0.0,3.0,91,0.00,,,0.00,0,weatherlink.com 1.10,2013-02-25 09:14:00,
2013-02-25 03:29:00,15.8,13.0,30.10,ESE,111,0.0,0.0,90,0.00,,,0.00,0,weatherlink.com 1.10,2013-02-25 09:29:00,
2013-02-25 03:44:00,14.8,12.0,30.11,ESE,111,0.0,0.0,90,0.00,,,0.00,0,weatherlink.com 1.10,2013-02-25 09:44:00,
2013-02-25 03:59:00,14.3,12.0,30.11,ESE,111,0.0,0.0,91,0.00,,,0.00,0,weatherlink.com 1.10,2013-02-25 09:59:00,
2013-02-25 04:14:00,15.1,13.0,30.11,ESE,111,0.0,1.0,92,0.00,,,0.00,0,weatherlink.com 1.10,2013-02-25 10:14:00,
2013-02-25 04:29:00,16.3,14.0,30.11,ESE,111,0.0,0.0,92,0.00,,,0.00,0,weatherlink.com 1.10,2013-02-25 10:29:00,
2013-02-25 04:44:00,15.7,14.0,30.12,ESE,111,0.0,1.0,91,0.00,,,0.00,0,weatherlink.com 1.10,2013-02-25 10:44:00,
2013-02-25 04:59:00,15.9,14.0,30.11,ESE,111,4.0,4.0,92,0.00,,,0.00,0,weatherlink.com 1.10,2013-02-25 10:59:00,
2013-02-25 05:14:00,14.6,13.0,30.12,ESE,111,0.0,2.0,91,0.00,,,0.00,0,weatherlink.com 1.10,2013-02-25 11:14:00,
2013-02-25 05:29:00,14.4,12.0,30.14,ESE,111,1.0,2.0,91,0.00,,,0.00,0,weatherlink.com 1.10,2013-02-25 11:29:00,
2013-02-25 05:44:00,13.7,12.0,30.13,ESE,111,0.0,0.0,91,0.00,,,0.00,0,weatherlink.com 1.10,2013-02-25 11:44:00,
2013-02-25 05:59:00,13.7,12.0,30.12,ESE,111,3.0,3.0,91,0.00,,,0.00,0,weatherlink.com 1.10,2013-02-25 11:59:00,
2013-02-25 06:14:00,13.9,12.0,30.12,ESE,111,1.0,4.0,92,0.00,,,0.00,0,weatherlink.com 1.10,2013-02-25 12:14:00,
2013-02-25 06:29:00,13.9,12.0,30.11,ESE,111,1.0,3.0,91,0.00,,,0.00,0,weatherlink.com 1.10,2013-02-25 12:29:00,
2013-02-25 06:44:00,13.2,11.0,30.11,ESE,111,0.0,0.0,90,0.00,,,0.00,5,weatherlink.com 1.10,2013-02-25 12:44:00,
2013-02-25 06:59:00,13.4,11.0,30.12,ESE,111,0.0,0.0,91,0.00,,,0.00,23,weatherlink.com 1.10,2013-02-25 12:59:00,
2013-02-25 07:29:00,13.8,12.0,30.13,ESE,111,0.0,0.0,91,0.00,,,0.00,79,weatherlink.com 1.10,2013-02-25 13:29:00,
2013-02-25 07:45:00,14.3,12.0,30.12,ESE,111,3.0,4.0,91,0.00,,,0.00,132,weatherlink.com 1.10,2013-02-25 13:45:00,
2013-02-25 08:00:00,14.1,12.0,30.13,ESE,111,2.0,4.0,91,0.00,,,0.00,141,weatherlink.com 1.10,2013-02-25 14:00:00,
2013-02-25 08:15:00,15.9,14.0,30.13,ESE,111,2.0,3.0,91,0.00,,,0.00,272,weatherlink.com 1.10,2013-02-25 14:15:00,
2013-02-25 08:30:00,18.4,17.0,30.13,ESE,111,2.0,3.0,93,0.00,,,0.00,269,weatherlink.com 1.10,2013-02-25 14:30:00,
2013-02-25 08:45:00,20.3,18.0,30.13,ESE,111,2.0,3.0,90,0.00,,,0.00,320,weatherlink.com 1.10,2013-02-25 14:45:00,
2013-02-25 09:00:00,20.6,18.0,30.13,ESE,111,3.0,4.0,89,0.00,,,0.00,192,weatherlink.com 1.10,2013-02-25 15:00:00,
2013-02-25 09:15:00,22.2,20.0,30.12,SE,140,5.0,8.0,90,0.00,,,0.00,403,weatherlink.com 1.10,2013-02-25 15:15:00,
2013-02-25 09:30:00,23.4,20.0,30.11,SE,134,5.0,7.0,87,0.00,,,0.00,287,weatherlink.com 1.10,2013-02-25 15:30:00,
2013-02-25 09:45:00,23.9,21.0,30.12,SE,134,1.0,5.0,87,0.00,,,0.00,323,weatherlink.com 1.10,2013-02-25 15:45:00,
2013-02-25 10:00:00,25.5,22.0,30.12,SE,134,1.0,4.0,87,0.00,,,0.00,408,weatherlink.com 1.10,2013-02-25 16:00:00,
2013-02-25 10:15:00,27.0,23.0,30.12,SE,134,4.0,5.0,85,0.00,,,0.00,552,weatherlink.com 1.10,2013-02-25 16:15:00,
2013-02-25 10:30:00,28.0,24.0,30.12,SE,134,4.0,5.0,84,0.00,,,0.00,643,weatherlink.com 1.10,2013-02-25 16:30:00,
2013-02-25 10:45:00,29.2,25.0,30.12,SE,134,3.0,5.0,83,0.00,,,0.00,485,weatherlink.com 1.10,2013-02-25 16:45:00,
2013-02-25 11:00:00,30.1,26.0,30.12,SE,126,6.0,8.0,84,0.00,,,0.00,504,weatherlink.com 1.10,2013-02-25 17:00:00,
2013-02-25 11:15:00,31.2,27.0,30.12,SE,127,7.0,8.0,83,0.00,,,0.00,682,weatherlink.com 1.10,2013-02-25 17:15:00,
2013-02-25 11:30:00,31.5,27.0,30.12,ESE,118,9.0,9.0,83,0.00,,,0.00,492,weatherlink.com 1.10,2013-02-25 17:30:00,
2013-02-25 11:45:00,31.6,27.0,30.11,ESE,115,9.0,10.0,84,0.00,,,0.00,541,weatherlink.com 1.10,2013-02-25 17:45:00,
2013-02-25 12:00:00,32.0,27.0,30.11,ESE,117,5.0,9.0,82,0.00,,,0.00,462,weatherlink.com 1.10,2013-02-25 18:00:00,
2013-02-25 12:15:00,32.8,28.0,30.10,ESE,111,7.0,7.0,81,0.00,,,0.00,489,weatherlink.com 1.10,2013-02-25 18:15:00,
2013-02-25 12:30:00,33.4,28.0,30.09,ESE,109,4.0,7.0,81,0.00,,,0.00,526,weatherlink.com 1.10,2013-02-25 18:30:00,
2013-02-25 12:45:00,33.6,28.0,30.10,ESE,113,5.0,7.0,80,0.00,,,0.00,366,weatherlink.com 1.10,2013-02-25 18:45:00,
2013-02-25 13:00:00,33.6,28.0,30.09,ESE,113,3.0,5.0,80,0.00,,,0.00,462,weatherlink.com 1.10,2013-02-25 19:00:00,
2013-02-25 13:15:00,34.1,29.0,30.08,ESE,113,4.0,5.0,81,0.00,,,0.00,636,weatherlink.com 1.10,2013-02-25 19:15:00,
2013-02-25 13:30:00,34.4,29.0,30.08,ESE,113,4.0,7.0,79,0.00,,,0.00,522,weatherlink.com 1.10,2013-02-25 19:30:00,
2013-02-25 14:02:00,35.0,29.0,30.07,ESE,114,5.0,8.0,78,0.00,,,0.00,548,weatherlink.com 1.10,2013-02-25 20:02:00,
2013-02-25 14:16:00,35.0,29.0,30.06,ESE,110,7.0,9.0,80,0.00,,,0.00,533,weatherlink.com 1.10,2013-02-25 20:16:00,
2013-02-25 14:31:00,35.0,29.0,30.05,ESE,110,8.0,9.0,80,0.00,,,0.00,494,weatherlink.com 1.10,2013-02-25 20:31:00,
2013-02-25 14:46:00,34.8,29.0,30.06,ESE,120,7.0,11.0,80,0.00,,,0.00,443,weatherlink.com 1.10,2013-02-25 20:46:00,
2013-02-25 15:01:00,35.2,30.0,30.05,ESE,121,7.0,9.0,80,0.00,,,0.00,401,weatherlink.com 1.10,2013-02-25 21:01:00,
2013-02-25 15:16:00,35.3,29.0,30.05,ESE,117,4.0,8.0,79,0.00,,,0.00,301,weatherlink.com 1.10,2013-02-25 21:16:00,
2013-02-25 15:31:00,35.7,30.0,30.04,ESE,117,3.0,4.0,79,0.00,,,0.00,304,weatherlink.com 1.10,2013-02-25 21:31:00,
2013-02-25 15:46:00,36.1,30.0,30.04,ESE,117,4.0,5.0,78,0.00,,,0.00,281,weatherlink.com 1.10,2013-02-25 21:46:00,
2013-02-25 16:01:00,36.2,30.0,30.04,ESE,116,1.0,4.0,77,0.00,,,0.00,227,weatherlink.com 1.10,2013-02-25 22:01:00,
2013-02-25 16:16:00,35.7,29.0,30.03,NE,43,6.0,7.0,78,0.00,,,0.00,185,weatherlink.com 1.10,2013-02-25 22:16:00,
2013-02-25 16:31:00,34.7,29.0,30.03,NE,42,4.0,6.0,80,0.00,,,0.00,139,weatherlink.com 1.10,2013-02-25 22:31:00,
2013-02-25 16:46:00,34.0,29.0,30.02,NE,42,6.0,6.0,81,0.00,,,0.00,84,weatherlink.com 1.10,2013-02-25 22:46:00,
2013-02-25 17:01:00,32.9,28.0,30.02,NE,45,5.0,6.0,83,0.00,,,0.00,44,weatherlink.com 1.10,2013-02-25 23:01:00,
2013-02-25 17:16:00,32.9,28.0,30.02,NE,47,6.0,7.0,83,0.00,,,0.00,28,weatherlink.com 1.10,2013-02-25 23:16:00,
2013-02-25 17:31:00,32.6,28.0,30.02,NE,48,4.0,7.0,83,0.00,,,0.00,14,weatherlink.com 1.10,2013-02-25 23:31:00,
2013-02-25 17:46:00,32.3,28.0,30.02,NE,48,5.0,7.0,83,0.00,,,0.00,0,weatherlink.com 1.10,2013-02-25 23:46:00,
2013-02-25 18:01:00,31.9,28.0,30.02,NE,48,4.0,7.0,84,0.00,,,0.00,0,weatherlink.com 1.10,2013-02-26 00:01:00,
2013-02-25 18:16:00,32.0,29.0,30.02,NE,49,5.0,8.0,89,0.00,,,0.00,0,weatherlink.com 1.10,2013-02-26 00:16:00,
2013-02-25 18:31:00,32.0,27.0,30.03,NE,49,5.0,8.0,82,0.00,,,0.00,0,weatherlink.com 1.10,2013-02-26 00:31:00,
2013-02-25 18:46:00,31.9,27.0,30.02,NE,49,8.0,8.0,83,0.00,,,0.00,0,weatherlink.com 1.10,2013-02-26 00:46:00,
2013-02-25 19:01:00,31.5,27.0,30.02,NE,46,7.0,10.0,83,0.00,,,0.00,0,weatherlink.com 1.10,2013-02-26 01:01:00,
2013-02-25 19:16:00,32.2,27.0,30.01,NE,51,9.0,11.0,82,0.00,,,0.00,0,weatherlink.com 1.10,2013-02-26 01:16:00,
2013-02-25 19:31:00,31.7,27.0,30.00,NE,50,7.0,8.0,83,0.00,,,0.00,0,weatherlink.com 1.10,2013-02-26 01:31:00,
2013-02-25 19:46:00,31.9,27.0,29.98,ENE,57,9.0,10.0,83,0.00,,,0.00,0,weatherlink.com 1.10,2013-02-26 01:46:00,
2013-02-25 20:01:00,31.9,27.0,29.98,NE,49,8.0,9.0,81,0.00,,,0.00,0,weatherlink.com 1.10,2013-02-26 02:01:00,
2013-02-25 20:16:00,31.4,27.0,30.00,ENE,57,5.0,7.0,82,0.00,,,0.00,0,weatherlink.com 1.10,2013-02-26 02:16:00,
2013-02-25 20:31:00,31.0,26.0,30.00,ENE,57,7.0,7.0,82,0.00,,,0.00,0,weatherlink.com 1.10,2013-02-26 02:31:00,
2013-02-25 20:46:00,30.7,26.0,30.00,NE,47,5.0,8.0,83,0.00,,,0.00,0,weatherlink.com 1.10,2013-02-26 02:46:00,
2013-02-25 21:01:00,30.6,26.0,30.00,NE,55,5.0,7.0,83,0.00,,,0.00,0,weatherlink.com 1.10,2013-02-26 03:01:00,
2013-02-25 21:16:00,31.7,27.0,30.00,ENE,65,8.0,12.0,82,0.00,,,0.00,0,weatherlink.com 1.10,2013-02-26 03:16:00,
2013-02-25 21:31:00,32.0,27.0,30.00,ENE,65,10.0,12.0,81,0.00,,,0.00,0,weatherlink.com 1.10,2013-02-26 03:31:00,
2013-02-25 21:46:00,32.1,27.0,30.01,East,88,9.0,12.0,80,0.00,,,0.00,0,weatherlink.com 1.10,2013-02-26 03:46:00,
2013-02-25 22:01:00,31.8,27.0,30.01,East,96,9.0,11.0,82,0.00,,,0.00,0,weatherlink.com 1.10,2013-02-26 04:01:00,
2013-02-25 22:16:00,31.4,27.0,30.00,ESE,107,10.0,12.0,83,0.00,,,0.00,0,weatherlink.com 1.10,2013-02-26 04:16:00,
2013-02-25 22:31:00,31.3,27.0,30.00,ESE,104,9.0,13.0,83,0.00,,,0.00,0,weatherlink.com 1.10,2013-02-26 04:31:00,
2013-02-25 22:46:00,31.3,27.0,29.99,ESE,102,10.0,13.0,83,0.00,,,0.00,0,weatherlink.com 1.10,2013-02-26 04:46:00,
2013-02-25 23:01:00,31.0,27.0,29.97,East,93,10.0,14.0,84,0.00,,,0.00,0,weatherlink.com 1.10,2013-02-26 05:01:00,
2013-02-25 23:16:00,31.2,27.0,29.96,ENE,76,12.0,15.0,83,0.00,,,0.00,0,weatherlink.com 1.10,2013-02-26 05:16:00,
2013-02-25 23:31:00,31.5,26.0,29.95,East,84,13.0,16.0,81,0.00,,,0.00,0,weatherlink.com 1.10,2013-02-26 05:31:00,
2013-02-25 23:46:00,31.8,26.0,29.93,East,80,13.0,14.0,80,0.00,,,0.00,0,weatherlink.com 1.10,2013-02-26 05:46:00,